sensor_id;sensor_type;location;lat;lon;timestamp;P1;durP1;ratioP1;P2;durP2;ratioP2
23988;SDS011;12202;52.136;5.592;2022-07-06T00:01:36;7.80;;;2.60;;
23988;SDS011;12202;52.136;5.592;2022-07-06T00:04:03;4.75;;;2.50;;
23988;SDS011;12202;52.136;5.592;2022-07-06T00:06:30;7.57;;;2.80;;
23988;SDS011;12202;52.136;5.592;2022-07-06T00:08:56;5.00;;;2.50;;
23988;SDS011;12202;52.136;5.592;2022-07-06T00:11:22;6.38;;;2.53;;
23988;SDS011;12202;52.136;5.592;2022-07-06T00:13:48;5.90;;;3.08;;
23988;SDS011;12202;52.136;5.592;2022-07-06T00:16:15;4.90;;;2.88;;
23988;SDS011;12202;52.136;5.592;2022-07-06T00:18:40;8.48;;;2.75;;
23988;SDS011;12202;52.136;5.592;2022-07-06T00:21:06;6.63;;;2.63;;
23988;SDS011;12202;52.136;5.592;2022-07-06T00:23:32;7.68;;;3.10;;
23988;SDS011;12202;52.136;5.592;2022-07-06T00:25:58;4.88;;;2.72;;
23988;SDS011;12202;52.136;5.592;2022-07-06T00:28:24;7.70;;;2.97;;
23988;SDS011;12202;52.136;5.592;2022-07-06T00:30:50;7.30;;;3.22;;
23988;SDS011;12202;52.136;5.592;2022-07-06T00:33:17;8.60;;;3.10;;
23988;SDS011;12202;52.136;5.592;2022-07-06T00:35:43;4.95;;;2.53;;
23988;SDS011;12202;52.136;5.592;2022-07-06T00:38:09;7.32;;;2.60;;
23988;SDS011;12202;52.136;5.592;2022-07-06T00:40:35;9.10;;;3.55;;
23988;SDS011;12202;52.136;5.592;2022-07-06T00:43:01;7.03;;;3.33;;
23988;SDS011;12202;52.136;5.592;2022-07-06T00:45:27;7.88;;;3.08;;
23988;SDS011;12202;52.136;5.592;2022-07-06T00:47:53;9.10;;;3.30;;
23988;SDS011;12202;52.136;5.592;2022-07-06T00:50:19;5.70;;;2.83;;
23988;SDS011;12202;52.136;5.592;2022-07-06T00:55:16;8.30;;;3.22;;
23988;SDS011;12202;52.136;5.592;2022-07-06T00:57:43;7.03;;;3.15;;
23988;SDS011;12202;52.136;5.592;2022-07-06T01:00:10;7.88;;;3.63;;
23988;SDS011;12202;52.136;5.592;2022-07-06T01:02:37;10.18;;;3.38;;
23988;SDS011;12202;52.136;5.592;2022-07-06T01:05:04;8.07;;;3.83;;
23988;SDS011;12202;52.136;5.592;2022-07-06T01:07:30;6.82;;;3.40;;
23988;SDS011;12202;52.136;5.592;2022-07-06T01:09:56;9.45;;;3.45;;
23988;SDS011;12202;52.136;5.592;2022-07-06T01:12:22;10.52;;;3.30;;
23988;SDS011;12202;52.136;5.592;2022-07-06T01:14:49;11.50;;;4.30;;
23988;SDS011;12202;52.136;5.592;2022-07-06T01:17:15;10.88;;;3.53;;
23988;SDS011;12202;52.136;5.592;2022-07-06T01:19:41;5.82;;;3.28;;
23988;SDS011;12202;52.136;5.592;2022-07-06T01:22:08;6.35;;;3.38;;
23988;SDS011;12202;52.136;5.592;2022-07-06T01:24:35;14.18;;;4.00;;
23988;SDS011;12202;52.136;5.592;2022-07-06T01:27:01;8.35;;;3.35;;
23988;SDS011;12202;52.136;5.592;2022-07-06T01:29:27;9.52;;;3.03;;
23988;SDS011;12202;52.136;5.592;2022-07-06T01:31:53;5.32;;;3.67;;
23988;SDS011;12202;52.136;5.592;2022-07-06T01:34:20;10.82;;;3.30;;
23988;SDS011;12202;52.136;5.592;2022-07-06T01:36:46;7.45;;;3.28;;
23988;SDS011;12202;52.136;5.592;2022-07-06T01:39:12;7.93;;;3.15;;
23988;SDS011;12202;52.136;5.592;2022-07-06T01:41:38;7.80;;;3.50;;
23988;SDS011;12202;52.136;5.592;2022-07-06T01:44:04;7.18;;;3.47;;
23988;SDS011;12202;52.136;5.592;2022-07-06T01:46:30;8.13;;;3.90;;
23988;SDS011;12202;52.136;5.592;2022-07-06T01:48:57;4.72;;;3.10;;
23988;SDS011;12202;52.136;5.592;2022-07-06T01:51:23;8.77;;;3.50;;
23988;SDS011;12202;52.136;5.592;2022-07-06T01:53:49;6.75;;;3.22;;
23988;SDS011;12202;52.136;5.592;2022-07-06T01:56:16;5.72;;;2.97;;
23988;SDS011;12202;52.136;5.592;2022-07-06T01:58:44;15.80;;;3.95;;
23988;SDS011;12202;52.136;5.592;2022-07-06T02:01:10;5.55;;;2.97;;
23988;SDS011;12202;52.136;5.592;2022-07-06T02:03:37;6.10;;;3.15;;
23988;SDS011;12202;52.136;5.592;2022-07-06T02:06:03;8.25;;;3.28;;
23988;SDS011;12202;52.136;5.592;2022-07-06T02:08:30;7.80;;;3.47;;
23988;SDS011;12202;52.136;5.592;2022-07-06T02:10:56;12.30;;;4.00;;
23988;SDS011;12202;52.136;5.592;2022-07-06T02:13:22;7.95;;;3.15;;
23988;SDS011;12202;52.136;5.592;2022-07-06T02:15:48;5.15;;;3.30;;
23988;SDS011;12202;52.136;5.592;2022-07-06T02:18:14;8.60;;;3.47;;
23988;SDS011;12202;52.136;5.592;2022-07-06T02:20:40;11.57;;;3.67;;
23988;SDS011;12202;52.136;5.592;2022-07-06T02:23:06;5.18;;;2.60;;
23988;SDS011;12202;52.136;5.592;2022-07-06T02:25:32;8.07;;;3.42;;
23988;SDS011;12202;52.136;5.592;2022-07-06T02:27:58;5.00;;;3.60;;
23988;SDS011;12202;52.136;5.592;2022-07-06T02:30:24;6.30;;;3.50;;
23988;SDS011;12202;52.136;5.592;2022-07-06T02:32:50;16.50;;;3.88;;
23988;SDS011;12202;52.136;5.592;2022-07-06T02:35:16;11.52;;;3.40;;
23988;SDS011;12202;52.136;5.592;2022-07-06T02:37:42;9.52;;;3.20;;
23988;SDS011;12202;52.136;5.592;2022-07-06T02:40:08;10.32;;;3.83;;
23988;SDS011;12202;52.136;5.592;2022-07-06T02:42:34;11.52;;;2.90;;
23988;SDS011;12202;52.136;5.592;2022-07-06T02:45:00;6.25;;;2.80;;
23988;SDS011;12202;52.136;5.592;2022-07-06T02:47:26;5.15;;;2.75;;
23988;SDS011;12202;52.136;5.592;2022-07-06T02:49:53;10.50;;;3.40;;
23988;SDS011;12202;52.136;5.592;2022-07-06T02:52:19;4.75;;;2.85;;
23988;SDS011;12202;52.136;5.592;2022-07-06T02:54:45;6.80;;;2.90;;
23988;SDS011;12202;52.136;5.592;2022-07-06T02:57:11;8.45;;;2.83;;
23988;SDS011;12202;52.136;5.592;2022-07-06T02:59:37;5.63;;;2.97;;
23988;SDS011;12202;52.136;5.592;2022-07-06T03:02:04;5.95;;;2.67;;
23988;SDS011;12202;52.136;5.592;2022-07-06T03:04:30;7.32;;;3.67;;
23988;SDS011;12202;52.136;5.592;2022-07-06T03:06:56;4.25;;;2.83;;
23988;SDS011;12202;52.136;5.592;2022-07-06T03:09:22;7.22;;;2.90;;
23988;SDS011;12202;52.136;5.592;2022-07-06T03:11:48;8.43;;;3.42;;
23988;SDS011;12202;52.136;5.592;2022-07-06T03:14:14;6.22;;;3.10;;
23988;SDS011;12202;52.136;5.592;2022-07-06T03:16:40;5.10;;;2.92;;
23988;SDS011;12202;52.136;5.592;2022-07-06T03:19:06;6.07;;;3.20;;
23988;SDS011;12202;52.136;5.592;2022-07-06T03:21:32;16.40;;;3.13;;
23988;SDS011;12202;52.136;5.592;2022-07-06T03:23:58;10.43;;;2.70;;
23988;SDS011;12202;52.136;5.592;2022-07-06T03:26:24;7.75;;;3.00;;
23988;SDS011;12202;52.136;5.592;2022-07-06T03:28:50;7.82;;;3.03;;
23988;SDS011;12202;52.136;5.592;2022-07-06T03:31:16;5.88;;;2.70;;
23988;SDS011;12202;52.136;5.592;2022-07-06T03:33:42;5.75;;;3.10;;
23988;SDS011;12202;52.136;5.592;2022-07-06T03:36:08;4.30;;;2.50;;
23988;SDS011;12202;52.136;5.592;2022-07-06T03:38:34;7.78;;;2.85;;
23988;SDS011;12202;52.136;5.592;2022-07-06T03:41:00;4.35;;;2.40;;
23988;SDS011;12202;52.136;5.592;2022-07-06T03:43:26;7.85;;;2.92;;
23988;SDS011;12202;52.136;5.592;2022-07-06T03:45:52;5.05;;;2.08;;
23988;SDS011;12202;52.136;5.592;2022-07-06T03:48:18;7.72;;;2.95;;
23988;SDS011;12202;52.136;5.592;2022-07-06T03:50:44;10.48;;;3.28;;
23988;SDS011;12202;52.136;5.592;2022-07-06T03:53:10;14.57;;;8.45;;
23988;SDS011;12202;52.136;5.592;2022-07-06T03:55:36;11.63;;;5.07;;
23988;SDS011;12202;52.136;5.592;2022-07-06T03:58:02;8.25;;;3.17;;
23988;SDS011;12202;52.136;5.592;2022-07-06T04:00:28;8.32;;;3.70;;
23988;SDS011;12202;52.136;5.592;2022-07-06T04:02:54;7.78;;;3.33;;
23988;SDS011;12202;52.136;5.592;2022-07-06T04:05:20;5.15;;;2.78;;
23988;SDS011;12202;52.136;5.592;2022-07-06T04:07:49;5.10;;;2.72;;
23988;SDS011;12202;52.136;5.592;2022-07-06T04:10:15;6.25;;;2.92;;
23988;SDS011;12202;52.136;5.592;2022-07-06T04:12:42;8.77;;;2.53;;
23988;SDS011;12202;52.136;5.592;2022-07-06T04:15:08;7.50;;;2.70;;
23988;SDS011;12202;52.136;5.592;2022-07-06T04:17:34;6.57;;;2.60;;
23988;SDS011;12202;52.136;5.592;2022-07-06T04:20:22;7.35;;;2.25;;
23988;SDS011;12202;52.136;5.592;2022-07-06T04:22:48;8.38;;;3.28;;
23988;SDS011;12202;52.136;5.592;2022-07-06T04:25:14;7.30;;;2.47;;
23988;SDS011;12202;52.136;5.592;2022-07-06T04:27:40;8.88;;;2.83;;
23988;SDS011;12202;52.136;5.592;2022-07-06T04:30:07;5.63;;;2.80;;
23988;SDS011;12202;52.136;5.592;2022-07-06T04:32:33;8.23;;;2.60;;
23988;SDS011;12202;52.136;5.592;2022-07-06T04:34:59;7.90;;;2.67;;
23988;SDS011;12202;52.136;5.592;2022-07-06T04:37:25;11.32;;;2.45;;
23988;SDS011;12202;52.136;5.592;2022-07-06T04:39:51;4.88;;;2.65;;
23988;SDS011;12202;52.136;5.592;2022-07-06T04:42:17;8.98;;;2.60;;
23988;SDS011;12202;52.136;5.592;2022-07-06T04:44:43;11.50;;;3.58;;
23988;SDS011;12202;52.136;5.592;2022-07-06T04:47:10;9.13;;;2.80;;
23988;SDS011;12202;52.136;5.592;2022-07-06T04:49:36;8.77;;;2.03;;
23988;SDS011;12202;52.136;5.592;2022-07-06T04:52:02;13.65;;;2.67;;
23988;SDS011;12202;52.136;5.592;2022-07-06T04:54:28;7.53;;;4.95;;
23988;SDS011;12202;52.136;5.592;2022-07-06T04:56:54;15.35;;;6.22;;
23988;SDS011;12202;52.136;5.592;2022-07-06T04:59:20;6.68;;;3.15;;
23988;SDS011;12202;52.136;5.592;2022-07-06T05:01:46;12.57;;;2.50;;
23988;SDS011;12202;52.136;5.592;2022-07-06T05:04:12;4.63;;;2.50;;
23988;SDS011;12202;52.136;5.592;2022-07-06T05:06:39;9.15;;;2.40;;
23988;SDS011;12202;52.136;5.592;2022-07-06T05:09:05;4.47;;;2.33;;
23988;SDS011;12202;52.136;5.592;2022-07-06T05:11:31;4.45;;;2.38;;
23988;SDS011;12202;52.136;5.592;2022-07-06T05:13:57;7.07;;;2.45;;
23988;SDS011;12202;52.136;5.592;2022-07-06T05:16:23;9.80;;;2.10;;
23988;SDS011;12202;52.136;5.592;2022-07-06T05:18:49;6.38;;;2.28;;
23988;SDS011;12202;52.136;5.592;2022-07-06T05:21:15;3.33;;;2.03;;
23988;SDS011;12202;52.136;5.592;2022-07-06T05:23:41;7.32;;;2.65;;
23988;SDS011;12202;52.136;5.592;2022-07-06T05:26:07;6.15;;;1.90;;
23988;SDS011;12202;52.136;5.592;2022-07-06T05:28:33;5.45;;;2.13;;
23988;SDS011;12202;52.136;5.592;2022-07-06T05:30:59;7.38;;;2.10;;
23988;SDS011;12202;52.136;5.592;2022-07-06T05:33:27;8.32;;;2.50;;
23988;SDS011;12202;52.136;5.592;2022-07-06T05:35:53;6.95;;;2.08;;
23988;SDS011;12202;52.136;5.592;2022-07-06T05:38:19;16.98;;;3.50;;
23988;SDS011;12202;52.136;5.592;2022-07-06T05:40:45;9.35;;;1.92;;
23988;SDS011;12202;52.136;5.592;2022-07-06T05:43:11;4.05;;;1.70;;
23988;SDS011;12202;52.136;5.592;2022-07-06T05:45:37;6.10;;;2.42;;
23988;SDS011;12202;52.136;5.592;2022-07-06T05:48:03;3.80;;;1.92;;
23988;SDS011;12202;52.136;5.592;2022-07-06T05:50:49;4.82;;;1.83;;
23988;SDS011;12202;52.136;5.592;2022-07-06T05:53:15;2.92;;;1.88;;
23988;SDS011;12202;52.136;5.592;2022-07-06T05:55:41;5.32;;;2.00;;
23988;SDS011;12202;52.136;5.592;2022-07-06T05:58:07;2.92;;;1.77;;
23988;SDS011;12202;52.136;5.592;2022-07-06T06:00:33;8.30;;;1.75;;
23988;SDS011;12202;52.136;5.592;2022-07-06T06:03:00;6.57;;;1.80;;
23988;SDS011;12202;52.136;5.592;2022-07-06T06:05:26;5.60;;;2.10;;
23988;SDS011;12202;52.136;5.592;2022-07-06T06:07:52;6.78;;;1.88;;
23988;SDS011;12202;52.136;5.592;2022-07-06T06:10:19;6.97;;;1.80;;
23988;SDS011;12202;52.136;5.592;2022-07-06T06:12:47;9.50;;;2.13;;
23988;SDS011;12202;52.136;5.592;2022-07-06T06:15:13;6.05;;;1.65;;
23988;SDS011;12202;52.136;5.592;2022-07-06T06:17:39;7.95;;;2.10;;
23988;SDS011;12202;52.136;5.592;2022-07-06T06:20:06;8.90;;;1.67;;
23988;SDS011;12202;52.136;5.592;2022-07-06T06:22:43;10.45;;;2.33;;
23988;SDS011;12202;52.136;5.592;2022-07-06T06:25:09;2.92;;;1.40;;
23988;SDS011;12202;52.136;5.592;2022-07-06T06:27:35;5.35;;;1.58;;
23988;SDS011;12202;52.136;5.592;2022-07-06T06:30:01;13.27;;;2.08;;
23988;SDS011;12202;52.136;5.592;2022-07-06T06:32:28;9.23;;;1.40;;
23988;SDS011;12202;52.136;5.592;2022-07-06T06:34:54;6.10;;;1.38;;
23988;SDS011;12202;52.136;5.592;2022-07-06T06:37:20;7.82;;;1.80;;
23988;SDS011;12202;52.136;5.592;2022-07-06T06:39:46;6.78;;;1.17;;
23988;SDS011;12202;52.136;5.592;2022-07-06T06:42:12;6.57;;;1.33;;
23988;SDS011;12202;52.136;5.592;2022-07-06T06:44:38;6.03;;;1.77;;
23988;SDS011;12202;52.136;5.592;2022-07-06T06:47:04;3.25;;;0.90;;
23988;SDS011;12202;52.136;5.592;2022-07-06T06:49:30;4.00;;;1.02;;
23988;SDS011;12202;52.136;5.592;2022-07-06T06:51:56;5.63;;;1.25;;
23988;SDS011;12202;52.136;5.592;2022-07-06T06:54:22;7.90;;;1.95;;
23988;SDS011;12202;52.136;5.592;2022-07-06T06:56:48;9.30;;;1.25;;
23988;SDS011;12202;52.136;5.592;2022-07-06T06:59:14;5.07;;;0.98;;
23988;SDS011;12202;52.136;5.592;2022-07-06T07:01:40;4.18;;;0.82;;
23988;SDS011;12202;52.136;5.592;2022-07-06T07:04:06;5.05;;;1.38;;
23988;SDS011;12202;52.136;5.592;2022-07-06T07:06:32;7.10;;;1.08;;
23988;SDS011;12202;52.136;5.592;2022-07-06T07:08:58;5.10;;;1.10;;
23988;SDS011;12202;52.136;5.592;2022-07-06T07:11:24;2.67;;;0.90;;
23988;SDS011;12202;52.136;5.592;2022-07-06T07:13:50;4.53;;;1.00;;
23988;SDS011;12202;52.136;5.592;2022-07-06T07:16:16;2.70;;;0.90;;
23988;SDS011;12202;52.136;5.592;2022-07-06T07:18:42;1.98;;;0.52;;
23988;SDS011;12202;52.136;5.592;2022-07-06T07:21:08;4.13;;;0.70;;
23988;SDS011;12202;52.136;5.592;2022-07-06T07:23:33;2.47;;;0.60;;
23988;SDS011;12202;52.136;5.592;2022-07-06T07:26:00;3.58;;;0.80;;
23988;SDS011;12202;52.136;5.592;2022-07-06T07:28:25;2.60;;;0.65;;
23988;SDS011;12202;52.136;5.592;2022-07-06T07:30:55;2.90;;;0.63;;
23988;SDS011;12202;52.136;5.592;2022-07-06T07:33:21;3.03;;;0.60;;
23988;SDS011;12202;52.136;5.592;2022-07-06T07:35:47;4.68;;;0.70;;
23988;SDS011;12202;52.136;5.592;2022-07-06T07:38:13;2.20;;;0.82;;
23988;SDS011;12202;52.136;5.592;2022-07-06T07:40:39;6.80;;;0.70;;
23988;SDS011;12202;52.136;5.592;2022-07-06T07:43:04;4.50;;;0.73;;
23988;SDS011;12202;52.136;5.592;2022-07-06T07:45:30;0.90;;;0.57;;
23988;SDS011;12202;52.136;5.592;2022-07-06T07:47:57;3.65;;;1.15;;
23988;SDS011;12202;52.136;5.592;2022-07-06T07:50:23;4.82;;;0.80;;
23988;SDS011;12202;52.136;5.592;2022-07-06T07:52:49;3.72;;;0.68;;
23988;SDS011;12202;52.136;5.592;2022-07-06T07:55:15;4.18;;;0.60;;
23988;SDS011;12202;52.136;5.592;2022-07-06T07:57:41;2.75;;;0.60;;
23988;SDS011;12202;52.136;5.592;2022-07-06T08:00:07;3.90;;;0.68;;
23988;SDS011;12202;52.136;5.592;2022-07-06T08:02:33;3.20;;;0.90;;
23988;SDS011;12202;52.136;5.592;2022-07-06T08:04:59;2.22;;;0.68;;
23988;SDS011;12202;52.136;5.592;2022-07-06T08:07:25;2.83;;;0.50;;
23988;SDS011;12202;52.136;5.592;2022-07-06T08:09:51;2.72;;;0.65;;
23988;SDS011;12202;52.136;5.592;2022-07-06T08:12:17;3.30;;;0.65;;
23988;SDS011;12202;52.136;5.592;2022-07-06T08:14:43;4.72;;;0.80;;
23988;SDS011;12202;52.136;5.592;2022-07-06T08:17:09;4.97;;;0.55;;
23988;SDS011;12202;52.136;5.592;2022-07-06T08:19:35;1.52;;;0.50;;
23988;SDS011;12202;52.136;5.592;2022-07-06T08:22:01;3.65;;;0.50;;
23988;SDS011;12202;52.136;5.592;2022-07-06T08:24:31;2.78;;;0.40;;
23988;SDS011;12202;52.136;5.592;2022-07-06T08:26:57;4.28;;;0.47;;
23988;SDS011;12202;52.136;5.592;2022-07-06T08:29:23;3.83;;;0.50;;
23988;SDS011;12202;52.136;5.592;2022-07-06T08:31:49;2.05;;;0.57;;
23988;SDS011;12202;52.136;5.592;2022-07-06T08:34:15;5.80;;;0.70;;
23988;SDS011;12202;52.136;5.592;2022-07-06T08:36:41;1.92;;;0.60;;
23988;SDS011;12202;52.136;5.592;2022-07-06T08:39:07;2.00;;;0.63;;
23988;SDS011;12202;52.136;5.592;2022-07-06T08:41:33;5.32;;;0.65;;
23988;SDS011;12202;52.136;5.592;2022-07-06T08:44:00;1.63;;;0.40;;
23988;SDS011;12202;52.136;5.592;2022-07-06T08:46:27;2.42;;;0.40;;
23988;SDS011;12202;52.136;5.592;2022-07-06T08:48:54;3.88;;;0.65;;
23988;SDS011;12202;52.136;5.592;2022-07-06T08:51:21;5.85;;;0.65;;
23988;SDS011;12202;52.136;5.592;2022-07-06T08:53:47;2.47;;;0.40;;
23988;SDS011;12202;52.136;5.592;2022-07-06T08:56:14;4.38;;;0.77;;
23988;SDS011;12202;52.136;5.592;2022-07-06T08:58:41;1.60;;;0.68;;
23988;SDS011;12202;52.136;5.592;2022-07-06T09:01:10;2.90;;;0.50;;
23988;SDS011;12202;52.136;5.592;2022-07-06T09:03:37;1.15;;;0.50;;
23988;SDS011;12202;52.136;5.592;2022-07-06T09:06:04;4.00;;;0.68;;
23988;SDS011;12202;52.136;5.592;2022-07-06T09:08:32;4.30;;;0.65;;
23988;SDS011;12202;52.136;5.592;2022-07-06T09:10:58;2.75;;;0.70;;
23988;SDS011;12202;52.136;5.592;2022-07-06T09:13:24;1.67;;;0.40;;
23988;SDS011;12202;52.136;5.592;2022-07-06T09:15:50;5.32;;;0.57;;
23988;SDS011;12202;52.136;5.592;2022-07-06T09:18:16;3.15;;;0.57;;
23988;SDS011;12202;52.136;5.592;2022-07-06T09:20:42;3.63;;;0.57;;
23988;SDS011;12202;52.136;5.592;2022-07-06T09:23:08;5.68;;;0.65;;
23988;SDS011;12202;52.136;5.592;2022-07-06T09:25:34;2.10;;;0.40;;
23988;SDS011;12202;52.136;5.592;2022-07-06T09:28:02;2.97;;;0.60;;
23988;SDS011;12202;52.136;5.592;2022-07-06T09:30:30;5.28;;;0.88;;
23988;SDS011;12202;52.136;5.592;2022-07-06T09:32:57;2.92;;;0.90;;
23988;SDS011;12202;52.136;5.592;2022-07-06T09:35:30;3.08;;;0.50;;
23988;SDS011;12202;52.136;5.592;2022-07-06T09:38:06;2.40;;;0.50;;
23988;SDS011;12202;52.136;5.592;2022-07-06T09:40:38;2.20;;;0.75;;
23988;SDS011;12202;52.136;5.592;2022-07-06T09:43:11;2.72;;;0.70;;
23988;SDS011;12202;52.136;5.592;2022-07-06T09:45:38;3.08;;;0.73;;
23988;SDS011;12202;52.136;5.592;2022-07-06T09:48:14;3.75;;;0.43;;
23988;SDS011;12202;52.136;5.592;2022-07-06T09:50:44;1.70;;;0.55;;
23988;SDS011;12202;52.136;5.592;2022-07-06T09:53:11;4.30;;;1.25;;
23988;SDS011;12202;52.136;5.592;2022-07-06T09:55:37;3.08;;;0.43;;
23988;SDS011;12202;52.136;5.592;2022-07-06T09:58:04;2.78;;;0.63;;
23988;SDS011;12202;52.136;5.592;2022-07-06T10:00:30;0.93;;;0.30;;
23988;SDS011;12202;52.136;5.592;2022-07-06T10:02:56;1.15;;;0.30;;
23988;SDS011;12202;52.136;5.592;2022-07-06T10:05:22;3.28;;;0.80;;
23988;SDS011;12202;52.136;5.592;2022-07-06T10:07:58;3.67;;;0.73;;
23988;SDS011;12202;52.136;5.592;2022-07-06T10:10:28;3.15;;;0.60;;
23988;SDS011;12202;52.136;5.592;2022-07-06T10:12:55;2.33;;;0.52;;
23988;SDS011;12202;52.136;5.592;2022-07-06T10:15:25;1.92;;;0.50;;
23988;SDS011;12202;52.136;5.592;2022-07-06T10:17:52;2.25;;;0.68;;
23988;SDS011;12202;52.136;5.592;2022-07-06T10:20:19;4.10;;;1.17;;
23988;SDS011;12202;52.136;5.592;2022-07-06T10:22:46;4.00;;;0.80;;
23988;SDS011;12202;52.136;5.592;2022-07-06T10:25:12;2.70;;;0.60;;
23988;SDS011;12202;52.136;5.592;2022-07-06T10:27:39;3.47;;;1.40;;
23988;SDS011;12202;52.136;5.592;2022-07-06T10:30:06;5.20;;;1.00;;
23988;SDS011;12202;52.136;5.592;2022-07-06T10:32:32;4.30;;;0.85;;
23988;SDS011;12202;52.136;5.592;2022-07-06T10:34:59;4.30;;;0.88;;
23988;SDS011;12202;52.136;5.592;2022-07-06T10:37:25;2.83;;;0.73;;
23988;SDS011;12202;52.136;5.592;2022-07-06T10:39:51;5.95;;;0.95;;
23988;SDS011;12202;52.136;5.592;2022-07-06T10:42:46;2.20;;;0.60;;
23988;SDS011;12202;52.136;5.592;2022-07-06T10:45:15;2.20;;;0.93;;
23988;SDS011;12202;52.136;5.592;2022-07-06T10:47:41;4.60;;;1.10;;
23988;SDS011;12202;52.136;5.592;2022-07-06T10:50:07;2.78;;;1.17;;
23988;SDS011;12202;52.136;5.592;2022-07-06T10:52:49;2.40;;;0.50;;
23988;SDS011;12202;52.136;5.592;2022-07-06T10:55:35;2.38;;;0.70;;
23988;SDS011;12202;52.136;5.592;2022-07-06T10:58:01;2.70;;;0.68;;
23988;SDS011;12202;52.136;5.592;2022-07-06T11:06:00;3.65;;;0.70;;
23988;SDS011;12202;52.136;5.592;2022-07-06T11:13:51;2.42;;;0.68;;
23988;SDS011;12202;52.136;5.592;2022-07-06T11:16:17;4.63;;;0.90;;
23988;SDS011;12202;52.136;5.592;2022-07-06T11:18:48;2.05;;;0.40;;
23988;SDS011;12202;52.136;5.592;2022-07-06T11:21:21;2.67;;;0.70;;
23988;SDS011;12202;52.136;5.592;2022-07-06T11:23:49;2.28;;;0.57;;
23988;SDS011;12202;52.136;5.592;2022-07-06T11:26:16;2.25;;;0.52;;
23988;SDS011;12202;52.136;5.592;2022-07-06T11:28:45;2.65;;;0.65;;
23988;SDS011;12202;52.136;5.592;2022-07-06T11:31:11;3.97;;;0.70;;
23988;SDS011;12202;52.136;5.592;2022-07-06T11:33:37;1.35;;;0.25;;
23988;SDS011;12202;52.136;5.592;2022-07-06T11:36:13;3.60;;;0.80;;
23988;SDS011;12202;52.136;5.592;2022-07-06T11:38:39;3.30;;;0.60;;
23988;SDS011;12202;52.136;5.592;2022-07-06T11:41:05;3.55;;;0.85;;
23988;SDS011;12202;52.136;5.592;2022-07-06T11:43:31;2.35;;;0.70;;
23988;SDS011;12202;52.136;5.592;2022-07-06T11:45:57;1.55;;;0.75;;
23988;SDS011;12202;52.136;5.592;2022-07-06T11:48:23;5.57;;;0.73;;
23988;SDS011;12202;52.136;5.592;2022-07-06T11:53:25;1.42;;;0.75;;
23988;SDS011;12202;52.136;5.592;2022-07-06T11:55:51;3.22;;;0.73;;
23988;SDS011;12202;52.136;5.592;2022-07-06T11:58:18;1.48;;;0.40;;
23988;SDS011;12202;52.136;5.592;2022-07-06T12:01:02;2.40;;;0.55;;
23988;SDS011;12202;52.136;5.592;2022-07-06T12:03:28;2.72;;;0.70;;
23988;SDS011;12202;52.136;5.592;2022-07-06T12:05:54;2.95;;;0.65;;
23988;SDS011;12202;52.136;5.592;2022-07-06T12:08:20;1.17;;;0.40;;
23988;SDS011;12202;52.136;5.592;2022-07-06T12:10:46;2.97;;;0.70;;
23988;SDS011;12202;52.136;5.592;2022-07-06T12:13:12;5.07;;;0.80;;
23988;SDS011;12202;52.136;5.592;2022-07-06T12:15:38;2.60;;;0.40;;
23988;SDS011;12202;52.136;5.592;2022-07-06T12:18:04;1.92;;;0.45;;
23988;SDS011;12202;52.136;5.592;2022-07-06T12:20:30;2.38;;;0.30;;
23988;SDS011;12202;52.136;5.592;2022-07-06T12:23:06;4.65;;;0.88;;
23988;SDS011;12202;52.136;5.592;2022-07-06T12:25:33;2.00;;;0.60;;
23988;SDS011;12202;52.136;5.592;2022-07-06T12:27:59;3.47;;;0.77;;
23988;SDS011;12202;52.136;5.592;2022-07-06T12:30:25;4.13;;;1.27;;
23988;SDS011;12202;52.136;5.592;2022-07-06T12:33:10;1.85;;;0.40;;
23988;SDS011;12202;52.136;5.592;2022-07-06T12:35:36;3.75;;;0.63;;
23988;SDS011;12202;52.136;5.592;2022-07-06T12:38:02;2.80;;;0.60;;
23988;SDS011;12202;52.136;5.592;2022-07-06T12:40:28;5.00;;;0.73;;
23988;SDS011;12202;52.136;5.592;2022-07-06T12:42:54;1.35;;;0.55;;
23988;SDS011;12202;52.136;5.592;2022-07-06T12:45:25;5.93;;;0.70;;
23988;SDS011;12202;52.136;5.592;2022-07-06T12:48:02;2.10;;;0.60;;
23988;SDS011;12202;52.136;5.592;2022-07-06T12:50:36;4.07;;;0.65;;
23988;SDS011;12202;52.136;5.592;2022-07-06T12:53:03;1.80;;;0.50;;
23988;SDS011;12202;52.136;5.592;2022-07-06T12:55:29;1.38;;;0.50;;
23988;SDS011;12202;52.136;5.592;2022-07-06T12:57:56;3.38;;;0.68;;
23988;SDS011;12202;52.136;5.592;2022-07-06T13:00:22;3.00;;;0.55;;
23988;SDS011;12202;52.136;5.592;2022-07-06T13:02:50;2.72;;;0.55;;
23988;SDS011;12202;52.136;5.592;2022-07-06T13:05:22;2.47;;;0.40;;
23988;SDS011;12202;52.136;5.592;2022-07-06T13:07:52;2.30;;;0.95;;
23988;SDS011;12202;52.136;5.592;2022-07-06T13:10:19;1.52;;;0.47;;
23988;SDS011;12202;52.136;5.592;2022-07-06T13:12:45;4.18;;;0.85;;
23988;SDS011;12202;52.136;5.592;2022-07-06T13:15:11;2.85;;;0.60;;
23988;SDS011;12202;52.136;5.592;2022-07-06T13:17:37;4.72;;;0.85;;
23988;SDS011;12202;52.136;5.592;2022-07-06T13:20:13;2.30;;;0.52;;
23988;SDS011;12202;52.136;5.592;2022-07-06T13:22:39;3.38;;;0.60;;
23988;SDS011;12202;52.136;5.592;2022-07-06T13:25:05;2.97;;;0.63;;
23988;SDS011;12202;52.136;5.592;2022-07-06T13:27:31;1.02;;;0.50;;
23988;SDS011;12202;52.136;5.592;2022-07-06T13:29:57;3.90;;;0.70;;
23988;SDS011;12202;52.136;5.592;2022-07-06T13:32:23;7.88;;;1.30;;
23988;SDS011;12202;52.136;5.592;2022-07-06T13:34:50;2.85;;;0.68;;
23988;SDS011;12202;52.136;5.592;2022-07-06T13:37:16;2.10;;;0.55;;
23988;SDS011;12202;52.136;5.592;2022-07-06T13:39:42;2.25;;;0.60;;
23988;SDS011;12202;52.136;5.592;2022-07-06T13:42:08;4.28;;;0.68;;
23988;SDS011;12202;52.136;5.592;2022-07-06T13:44:34;9.27;;;1.23;;
23988;SDS011;12202;52.136;5.592;2022-07-06T13:47:00;5.85;;;0.90;;
23988;SDS011;12202;52.136;5.592;2022-07-06T13:49:26;3.85;;;0.60;;
23988;SDS011;12202;52.136;5.592;2022-07-06T13:57:18;2.50;;;0.90;;
23988;SDS011;12202;52.136;5.592;2022-07-06T13:59:44;3.95;;;0.90;;
23988;SDS011;12202;52.136;5.592;2022-07-06T14:02:11;3.03;;;0.77;;
23988;SDS011;12202;52.136;5.592;2022-07-06T14:04:37;2.20;;;0.90;;
23988;SDS011;12202;52.136;5.592;2022-07-06T14:07:03;2.95;;;1.20;;
23988;SDS011;12202;52.136;5.592;2022-07-06T14:09:31;3.65;;;0.95;;
23988;SDS011;12202;52.136;5.592;2022-07-06T14:11:57;0.95;;;0.73;;
23988;SDS011;12202;52.136;5.592;2022-07-06T14:14:23;2.88;;;0.80;;
23988;SDS011;12202;52.136;5.592;2022-07-06T14:16:49;3.20;;;0.75;;
23988;SDS011;12202;52.136;5.592;2022-07-06T14:19:16;4.88;;;1.05;;
23988;SDS011;12202;52.136;5.592;2022-07-06T14:21:42;5.20;;;1.00;;
23988;SDS011;12202;52.136;5.592;2022-07-06T14:24:09;2.42;;;0.95;;
23988;SDS011;12202;52.136;5.592;2022-07-06T14:26:35;7.13;;;1.20;;
23988;SDS011;12202;52.136;5.592;2022-07-06T14:29:01;3.38;;;0.85;;
23988;SDS011;12202;52.136;5.592;2022-07-06T14:31:27;2.70;;;1.60;;
23988;SDS011;12202;52.136;5.592;2022-07-06T14:33:53;4.50;;;1.27;;
23988;SDS011;12202;52.136;5.592;2022-07-06T14:36:20;5.30;;;1.83;;
23988;SDS011;12202;52.136;5.592;2022-07-06T14:38:46;7.82;;;1.45;;
23988;SDS011;12202;52.136;5.592;2022-07-06T14:41:12;5.32;;;1.10;;
23988;SDS011;12202;52.136;5.592;2022-07-06T14:43:38;4.00;;;1.65;;
23988;SDS011;12202;52.136;5.592;2022-07-06T14:46:04;6.05;;;1.55;;
23988;SDS011;12202;52.136;5.592;2022-07-06T14:48:30;5.95;;;1.50;;
23988;SDS011;12202;52.136;5.592;2022-07-06T14:50:56;7.95;;;1.50;;
23988;SDS011;12202;52.136;5.592;2022-07-06T14:53:22;5.18;;;1.10;;
23988;SDS011;12202;52.136;5.592;2022-07-06T14:55:48;10.98;;;1.30;;
23988;SDS011;12202;52.136;5.592;2022-07-06T14:58:14;3.80;;;1.42;;
23988;SDS011;12202;52.136;5.592;2022-07-06T15:00:46;8.13;;;2.00;;
23988;SDS011;12202;52.136;5.592;2022-07-06T15:03:12;7.90;;;1.15;;
23988;SDS011;12202;52.136;5.592;2022-07-06T15:05:38;4.55;;;1.40;;